CheckWX is a tool to help pilots better visualize weather data.  It is not intended as a substitute for an official pre-flight weather briefing.

01:07:54 UTC

KEHY METAR
Elk Mountain
Elk Mountain, Wyoming, USA
Current

38 mins ago

KEHY 170030Z AUTO 22003KT 10SM BKN040 OVC045 M01/M03 A3021 RMK AO2 PWINO
Observed
Nov-17 @ 00:30 UTC
Wind
  • 220° at 3 KTS
Visibility
10 SM
Flight Rules
VFR
Cloud Levels
  • Broken at 4,000' AGL
  • Overcast at 4,500' AGL
Temperature
-1°C / 30°F
Dewpoint
-3°C / 27°F
Humidity
86%
Altimeter
30.21" Hg
Pressure
1023.02 hPa
Previous

58 mins ago

KEHY 170010Z AUTO 00000KT 4SM SCT025 BKN045 OVC110 M01/M03 A3021 RMK AO2 PWINO
Observed
Nov-17 @ 00:10 UTC
Visibility
4 SM
Flight Rules
MVFR
Cloud Levels
  • Scattered at 2,500' AGL
  • Broken at 4,500' AGL
  • Overcast at 11,000' AGL
Temperature
-1°C / 30°F
Dewpoint
-3°C / 27°F
Humidity
86%
Altimeter
30.21" Hg
Pressure
1023.02 hPa
Previous

1 hour ago

KEHY 162350Z AUTO 31003KT 4SM SCT022 BKN035 OVC045 M01/M03 A3021 RMK AO2 PWINO
Observed
Nov-16 @ 23:50 UTC
Wind
  • 310° at 3 KTS
Visibility
4 SM
Flight Rules
MVFR
Cloud Levels
  • Scattered at 2,200' AGL
  • Broken at 3,500' AGL
  • Overcast at 4,500' AGL
Temperature
-1°C / 30°F
Dewpoint
-3°C / 27°F
Humidity
86%
Altimeter
30.21" Hg
Pressure
1023.02 hPa